Time;durP1;ratioP1;P1;durP2;ratioP2;P2;SDS_P1;SDS_P2;PMS_P1;PMS_P2;Temp;Humidity;BMP_temperature;BMP_pressure;BME280_temperature;BME280_humidity;BME280_pressure;Samples;Min_cycle;Max_cycle;Signal;HPM_P1;HPM_P2
2021/07/05 00:00:21;;;;;;;;;3.50;2.75;;;;;19.81;56.45;100669.03;5017993;28;66424;-61
2021/07/05 00:02:46;;;;;;;;;5.00;2.75;;;;;19.78;56.41;100672.72;5036484;28;45588;-60
2021/07/05 00:05:12;;;;;;;;;3.25;3.00;;;;;19.77;56.45;100668.38;5035596;28;45428;-61
2021/07/05 00:07:38;;;;;;;;;3.75;3.75;;;;;19.78;56.59;100670.06;5054966;28;45737;-61
2021/07/05 00:10:04;;;;;;;;;3.75;3.50;;;;;19.81;56.68;100666.38;5056632;28;45755;-61
2021/07/05 00:12:30;;;;;;;;;6.00;3.00;;;;;19.72;56.93;100662.59;5053232;28;46463;-61
2021/07/05 00:14:55;;;;;;;;;3.75;2.25;;;;;19.66;57.06;100657.72;5056917;28;52125;-61
2021/07/05 00:17:20;;;;;;;;;4.75;3.50;;;;;19.64;57.30;100641.16;5056670;28;45336;-61
2021/07/05 00:19:46;;;;;;;;;3.75;3.75;;;;;19.66;56.91;100647.19;5056646;28;58121;-61
2021/07/05 00:22:11;;;;;;;;;3.00;2.00;;;;;19.62;57.01;100640.41;5055975;28;53227;-62
2021/07/05 00:24:37;;;;;;;;;4.50;3.00;;;;;19.63;57.48;100652.66;5057627;28;56785;-61
2021/07/05 00:27:02;;;;;;;;;2.75;2.75;;;;;19.63;57.33;100663.22;5040498;28;46008;-61
2021/07/05 00:29:27;;;;;;;;;4.50;1.75;;;;;19.56;58.00;100668.03;5057401;28;45324;-61
2021/07/05 00:31:53;;;;;;;;;3.00;2.50;;;;;19.55;57.99;100661.06;5057040;28;46847;-61
2021/07/05 00:34:18;;;;;;;;;4.00;4.00;;;;;19.58;57.60;100668.75;5057954;28;45314;-61
2021/07/05 00:36:44;;;;;;;;;3.00;3.00;;;;;19.55;57.80;100662.84;5058424;28;58898;-62
2021/07/05 00:39:09;;;;;;;;;4.25;3.75;;;;;19.56;57.53;100669.81;5054779;28;57695;-62
2021/07/05 00:41:35;;;;;;;;;3.00;3.00;;;;;19.57;58.28;100668.88;5054199;28;45423;-61
2021/07/05 00:44:00;;;;;;;;;6.25;4.00;;;;;19.53;58.30;100665.56;5057942;28;45182;-61
2021/07/05 00:46:25;;;;;;;;;2.25;2.25;;;;;19.49;58.60;100653.53;5056253;28;45535;-61
2021/07/05 00:48:51;;;;;;;;;4.00;4.00;;;;;19.48;58.01;100649.22;5056215;28;45381;-62
2021/07/05 00:51:17;;;;;;;;;3.25;3.25;;;;;19.52;58.14;100650.69;5056389;28;46960;-61
2021/07/05 00:53:43;;;;;;;;;2.50;1.25;;;;;19.52;58.55;100655.97;5056723;28;45593;-62
2021/07/05 00:56:09;;;;;;;;;4.25;3.00;;;;;19.52;58.60;100655.97;5058918;28;45244;-62
2021/07/05 00:58:34;;;;;;;;;5.50;3.00;;;;;19.47;58.22;100662.50;5041121;28;59700;-62
2021/07/05 01:01:00;;;;;;;;;4.25;3.00;;;;;19.41;58.48;100654.00;5043177;28;49640;-62
2021/07/05 01:03:25;;;;;;;;;5.75;2.75;;;;;19.43;58.64;100646.88;5044176;28;45467;-63
2021/07/05 01:05:51;;;;;;;;;2.50;2.00;;;;;19.46;58.00;100632.66;5022991;28;50088;-62
2021/07/05 01:08:16;;;;;;;;;4.25;3.25;;;;;19.47;58.27;100626.44;5060510;28;50316;-66
2021/07/05 01:10:41;;;;;;;;;4.75;4.75;;;;;19.50;57.80;100635.94;5058423;28;56867;-66
2021/07/05 01:13:07;;;;;;;;;3.75;2.25;;;;;19.49;58.30;100621.91;5040966;28;45261;-66
2021/07/05 01:15:32;;;;;;;;;3.50;2.00;;;;;19.42;57.71;100623.22;5039157;28;58802;-65
2021/07/05 01:18:00;;;;;;;;;5.00;5.00;;;;;19.35;58.47;100609.63;5061820;28;45518;-66
2021/07/05 01:20:27;;;;;;;;;3.75;3.50;;;;;19.35;58.32;100614.06;5043308;28;45573;-62
2021/07/05 01:22:52;;;;;;;;;5.00;3.50;;;;;19.37;58.46;100594.56;5040531;28;45210;-63
2021/07/05 01:25:20;;;;;;;;;3.00;3.00;;;;;19.37;57.99;100594.56;5045775;28;45894;-64
2021/07/05 01:27:46;;;;;;;;;3.00;3.00;;;;;19.34;58.01;100593.91;5042355;28;45620;-64
2021/07/05 01:30:12;;;;;;;;;6.25;3.00;;;;;19.25;57.96;100595.38;5043048;28;47677;-64
2021/07/05 01:32:38;;;;;;;;;4.50;3.00;;;;;19.19;58.31;100610.72;5039596;28;45638;-64
2021/07/05 01:35:06;;;;;;;;;2.50;2.50;;;;;19.14;58.26;100611.88;5039728;28;48743;-64
2021/07/05 01:37:31;;;;;;;;;5.50;5.00;;;;;19.10;58.88;100602.50;5023528;28;45476;-64
2021/07/05 01:39:57;;;;;;;;;4.25;4.25;;;;;19.02;58.83;100607.44;5048732;28;64575;-67
2021/07/05 01:42:22;;;;;;;;;3.00;2.00;;;;;18.99;58.94;100619.94;5043858;28;45354;-61
2021/07/05 01:44:48;;;;;;;;;6.00;2.75;;;;;18.93;59.70;100615.91;5061341;28;45680;-62
2021/07/05 01:47:13;;;;;;;;;4.00;3.00;;;;;18.89;59.85;100622.31;5061389;28;45311;-62
2021/07/05 01:49:39;;;;;;;;;4.00;2.00;;;;;18.83;60.44;100615.66;5060605;28;60476;-62
2021/07/05 01:52:05;;;;;;;;;3.25;3.25;;;;;18.80;60.45;100628.16;5061285;28;45377;-62
2021/07/05 01:54:30;;;;;;;;;4.00;2.75;;;;;18.78;60.74;100624.78;5060292;28;45383;-62
2021/07/05 01:56:55;;;;;;;;;4.75;4.00;;;;;18.75;61.02;100625.81;5039408;28;63589;-62
2021/07/05 01:59:21;;;;;;;;;3.50;3.50;;;;;18.74;61.14;100623.28;5045901;28;45281;-62
2021/07/05 02:01:46;;;;;;;;;3.50;3.50;;;;;18.75;60.95;100617.06;5059850;28;45558;-61
2021/07/05 02:04:12;;;;;;;;;2.50;2.50;;;;;18.72;60.92;100620.75;5039513;28;55760;-62
2021/07/05 02:06:37;;;;;;;;;4.00;2.00;;;;;18.71;61.35;100624.31;5061024;28;53822;-63
2021/07/05 02:09:06;;;;;;;;;3.00;3.00;;;;;18.65;61.33;100630.00;5059937;28;45400;-63
2021/07/05 02:11:31;;;;;;;;;5.25;4.00;;;;;18.61;61.63;100614.44;5057354;28;45416;-62
2021/07/05 02:13:57;;;;;;;;;8.75;5.00;;;;;18.65;61.67;100621.25;5059401;28;62303;-62
2021/07/05 02:16:22;;;;;;;;;4.00;4.00;;;;;18.72;61.56;100618.13;5060326;28;61955;-63
2021/07/05 02:18:47;;;;;;;;;3.75;3.00;;;;;18.76;61.54;100616.13;5024753;28;60538;-62
2021/07/05 02:21:13;;;;;;;;;3.75;2.00;;;;;18.82;61.71;100629.78;5059580;28;45269;-62
2021/07/05 02:23:38;;;;;;;;;2.75;2.25;;;;;18.87;61.76;100620.72;5042193;28;45218;-62
2021/07/05 02:26:06;;;;;;;;;4.00;3.25;;;;;18.88;61.60;100615.38;5060458;28;61106;-62
2021/07/05 02:28:34;;;;;;;;;3.50;3.50;;;;;18.91;61.48;100612.53;5060886;28;45625;-62
2021/07/05 02:30:59;;;;;;;;;3.00;3.00;;;;;18.97;61.41;100613.91;5060875;28;45602;-62
2021/07/05 02:33:26;;;;;;;;;2.00;2.00;;;;;19.02;61.30;100602.16;5042328;28;64273;-62
2021/07/05 02:35:52;;;;;;;;;5.00;2.50;;;;;19.01;61.49;100597.81;5059890;28;45194;-62
2021/07/05 02:38:18;;;;;;;;;2.00;2.00;;;;;19.04;61.16;100589.72;5042570;28;45574;-62
2021/07/05 02:40:45;;;;;;;;;3.75;3.50;;;;;19.06;61.20;100593.13;5031076;28;45319;-62
2021/07/05 02:43:10;;;;;;;;;2.00;2.00;;;;;19.05;61.18;100583.53;5055958;28;45382;-62
2021/07/05 02:45:36;;;;;;;;;5.00;3.50;;;;;19.12;61.07;100579.53;5039337;28;45540;-62
2021/07/05 02:48:12;;;;;;;;;3.50;3.50;;;;;19.14;61.29;100576.78;5037700;28;45504;-62
2021/07/05 02:50:38;;;;;;;;;3.50;3.25;;;;;19.16;61.31;100577.53;5060749;28;45442;-62
2021/07/05 02:53:07;;;;;;;;;4.50;4.00;;;;;19.14;61.17;100574.16;5041019;28;45537;-62
2021/07/05 02:55:33;;;;;;;;;5.00;4.00;;;;;19.13;61.29;100575.94;5053231;28;45218;-63
2021/07/05 02:57:58;;;;;;;;;4.50;4.50;;;;;19.13;61.02;100575.94;5057676;28;66988;-63
2021/07/05 03:00:25;;;;;;;;;6.00;4.00;;;;;19.15;61.23;100567.94;5027684;28;61320;-63
2021/07/05 03:02:51;;;;;;;;;2.00;2.00;;;;;19.17;61.10;100566.03;5028185;28;45416;-63
2021/07/05 03:05:17;;;;;;;;;2.25;2.25;;;;;19.18;61.46;100556.34;5038103;28;45343;-62
2021/07/05 03:07:43;;;;;;;;;2.00;1.75;;;;;19.19;61.21;100550.13;5042077;28;45475;-62
2021/07/05 03:10:10;;;;;;;;;6.25;4.00;;;;;19.18;61.53;100545.81;5038914;28;45888;-62
2021/07/05 03:12:35;;;;;;;;;4.75;3.75;;;;;19.20;61.42;100555.31;5024457;28;45528;-63
2021/07/05 03:15:01;;;;;;;;;5.00;3.00;;;;;19.21;61.44;100550.88;5060568;28;45466;-62
2021/07/05 03:17:26;;;;;;;;;3.25;3.25;;;;;19.23;61.48;100551.66;5041875;28;46213;-62
2021/07/05 03:19:52;;;;;;;;;7.00;4.25;;;;;19.23;61.42;100546.38;5022618;28;45254;-62
2021/07/05 03:22:17;;;;;;;;;5.25;3.00;;;;;19.22;61.36;100547.28;5036945;28;53275;-61
2021/07/05 03:24:43;;;;;;;;;3.25;3.25;;;;;19.21;61.35;100546.44;5059628;28;45490;-61
2021/07/05 03:27:09;;;;;;;;;2.25;2.00;;;;;19.19;61.76;100545.72;5059808;28;45397;-61
2021/07/05 03:29:34;;;;;;;;;4.00;3.50;;;;;19.18;61.89;100548.44;5038989;28;45266;-62
2021/07/05 03:32:00;;;;;;;;;3.00;2.50;;;;;19.19;62.11;100542.22;5057152;28;58295;-61
2021/07/05 03:34:26;;;;;;;;;4.00;3.25;;;;;19.15;62.09;100537.19;5059516;28;56324;-61
2021/07/05 03:36:51;;;;;;;;;4.25;3.75;;;;;19.09;62.54;100537.59;5059084;28;59800;-61
2021/07/05 03:39:16;;;;;;;;;4.25;4.25;;;;;19.03;62.57;100535.38;5036389;28;63577;-61
2021/07/05 03:41:42;;;;;;;;;4.50;4.00;;;;;18.97;63.15;100538.38;5054798;28;56102;-61
2021/07/05 03:44:07;;;;;;;;;4.75;3.25;;;;;18.94;63.12;100532.47;5038583;28;65327;-61
2021/07/05 03:46:32;;;;;;;;;4.00;4.00;;;;;18.89;63.68;100530.16;5054824;28;46077;-61
2021/07/05 03:48:58;;;;;;;;;3.50;3.50;;;;;18.84;63.65;100525.19;5041552;28;51305;-61
2021/07/05 03:51:23;;;;;;;;;4.50;2.00;;;;;18.80;63.47;100525.47;5058718;28;62585;-61
2021/07/05 03:53:48;;;;;;;;;5.00;4.75;;;;;18.77;64.29;100517.78;5051127;28;62375;-61
2021/07/05 03:56:14;;;;;;;;;2.75;2.75;;;;;18.76;64.50;100516.09;5055028;28;58808;-61
2021/07/05 03:58:39;;;;;;;;;2.75;2.75;;;;;18.77;64.24;100526.50;5057507;28;63231;-61
2021/07/05 04:01:05;;;;;;;;;3.00;3.00;;;;;18.82;64.41;100519.19;5057643;28;57830;-63
2021/07/05 04:03:30;;;;;;;;;4.00;3.00;;;;;18.81;64.50;100508.72;5058945;28;56251;-62
2021/07/05 04:05:58;;;;;;;;;4.25;3.25;;;;;18.79;64.56;100500.09;5051854;28;59966;-62
2021/07/05 04:08:26;;;;;;;;;10.50;5.00;;;;;18.77;64.74;100494.09;5025115;28;45318;-62
2021/07/05 04:10:51;;;;;;;;;6.00;5.00;;;;;18.72;64.99;100483.84;5031935;28;45301;-62
2021/07/05 04:13:17;;;;;;;;;6.00;5.00;;;;;18.73;64.98;100484.69;5058154;28;45292;-63
2021/07/05 04:15:42;;;;;;;;;7.75;5.75;;;;;18.72;65.15;100475.97;5058942;28;46559;-63
2021/07/05 04:18:07;;;;;;;;;37.75;28.75;;;;;18.71;65.03;100463.75;5037266;28;62252;-63
2021/07/05 04:20:33;;;;;;;;;8.25;7.50;;;;;18.71;65.11;100458.47;5051744;28;54522;-62
2021/07/05 04:22:59;;;;;;;;;12.25;8.50;;;;;18.71;64.98;100463.75;5059297;28;45336;-64
2021/07/05 04:25:24;;;;;;;;;5.75;5.75;;;;;18.69;65.00;100470.91;5045565;28;45353;-62
2021/07/05 04:27:50;;;;;;;;;6.25;6.00;;;;;18.67;65.23;100467.53;5041189;28;45687;-62
2021/07/05 04:30:15;;;;;;;;;5.00;5.00;;;;;18.60;65.61;100466.19;5041279;28;45267;-63
2021/07/05 04:32:41;;;;;;;;;9.00;5.00;;;;;18.57;65.56;100468.19;5037781;28;45285;-63
2021/07/05 04:35:09;;;;;;;;;5.25;4.00;;;;;18.56;65.98;100462.06;5021621;28;46201;-63
2021/07/05 04:37:34;;;;;;;;;5.00;4.00;;;;;18.55;66.19;100466.50;5044454;28;45548;-63
2021/07/05 04:40:00;;;;;;;;;5.25;5.25;;;;;18.62;66.18;100460.81;5054912;28;45704;-62
2021/07/05 04:42:26;;;;;;;;;6.00;5.00;;;;;18.67;66.17;100469.31;5041182;28;45352;-62
2021/07/05 04:44:51;;;;;;;;;4.00;4.00;;;;;18.67;66.07;100464.91;5059765;28;46019;-62
2021/07/05 04:47:17;;;;;;;;;4.00;4.00;;;;;18.61;65.31;100454.72;5023806;28;45435;-63
2021/07/05 04:49:42;;;;;;;;;3.50;3.50;;;;;18.61;65.44;100440.72;5039827;28;45352;-63
2021/07/05 04:52:08;;;;;;;;;5.00;4.00;;;;;18.55;65.29;100429.66;5034130;28;45398;-63
2021/07/05 04:54:33;;;;;;;;;7.00;3.75;;;;;18.43;65.71;100421.72;5043899;28;46084;-63
2021/07/05 04:56:59;;;;;;;;;6.25;4.75;;;;;18.40;66.32;100421.91;5044307;28;45843;-62
2021/07/05 04:59:25;;;;;;;;;4.50;3.75;;;;;18.42;66.35;100401.59;5028033;28;54638;-63
2021/07/05 05:01:50;;;;;;;;;5.75;4.00;;;;;18.43;66.35;100409.41;5053075;28;46404;-62
2021/07/05 05:04:16;;;;;;;;;5.00;4.00;;;;;18.44;65.56;100405.00;5054237;28;46495;-62
2021/07/05 05:06:42;;;;;;;;;2.25;2.25;;;;;18.44;65.79;100402.38;5040261;28;45294;-63
2021/07/05 05:09:07;;;;;;;;;3.00;2.00;;;;;18.44;65.80;100402.38;5038074;28;45266;-62
2021/07/05 05:11:32;;;;;;;;;4.25;4.25;;;;;18.44;65.96;100405.84;5040102;28;46686;-61
2021/07/05 05:13:58;;;;;;;;;4.50;4.25;;;;;18.48;66.07;100395.94;5034477;28;62262;-62
2021/07/05 05:16:23;;;;;;;;;4.00;4.00;;;;;18.52;65.85;100389.53;5061621;28;45411;-62
2021/07/05 05:18:49;;;;;;;;;4.00;3.00;;;;;18.53;65.76;100385.97;5041778;28;59767;-64
2021/07/05 05:21:14;;;;;;;;;2.75;1.25;;;;;18.44;65.80;100386.59;5039810;28;45282;-63
2021/07/05 05:23:39;;;;;;;;;3.00;2.25;;;;;18.39;65.69;100386.00;5037263;28;47431;-61
2021/07/05 05:26:05;;;;;;;;;3.25;2.50;;;;;18.43;65.83;100398.91;5040746;28;45436;-62
2021/07/05 05:28:31;;;;;;;;;3.00;3.00;;;;;18.50;65.91;100388.78;5019527;28;45559;-63
2021/07/05 05:30:57;;;;;;;;;5.25;5.25;;;;;18.60;65.56;100399.53;5061688;28;45371;-62
2021/07/05 05:33:22;;;;;;;;;7.75;5.00;;;;;18.67;65.41;100398.25;5040178;28;45449;-62
2021/07/05 05:35:49;;;;;;;;;1.75;1.25;;;;;18.75;65.39;100383.63;5059818;28;63694;-63
2021/07/05 05:38:15;;;;;;;;;2.00;2.00;;;;;18.77;65.05;100381.72;5050096;28;45403;-62
2021/07/05 05:40:40;;;;;;;;;3.25;2.50;;;;;18.78;64.77;100383.41;5053894;28;56905;-63
2021/07/05 05:43:08;;;;;;;;;4.25;3.25;;;;;18.82;64.99;100397.19;5043067;28;47918;-63
2021/07/05 05:45:37;;;;;;;;;5.75;5.00;;;;;18.87;64.97;100394.28;5059259;28;45562;-62
2021/07/05 05:48:02;;;;;;;;;4.50;4.50;;;;;18.95;64.80;100397.22;5026150;28;45412;-62
2021/07/05 05:50:28;;;;;;;;;4.00;4.00;;;;;19.05;64.82;100399.16;5039335;28;45413;-61
2021/07/05 05:52:53;;;;;;;;;2.25;2.00;;;;;19.10;64.01;100407.56;5016327;28;47717;-61
2021/07/05 05:55:19;;;;;;;;;10.75;8.25;;;;;19.14;64.43;100414.31;5060267;28;60248;-61
2021/07/05 05:57:44;;;;;;;;;3.50;3.50;;;;;19.19;64.07;100410.50;5057757;28;50096;-62
2021/07/05 06:00:19;;;;;;;;;2.00;2.00;;;;;19.20;64.28;100415.69;5060196;28;45396;-62
2021/07/05 06:02:45;;;;;;;;;5.75;2.25;;;;;19.25;63.85;100415.38;5043536;28;45551;-66
2021/07/05 06:05:10;;;;;;;;;3.00;3.00;;;;;19.28;64.38;100408.09;5056032;28;45316;-62
2021/07/05 06:07:36;;;;;;;;;3.75;3.75;;;;;19.36;64.04;100411.03;5054573;28;45523;-62
2021/07/05 06:10:03;;;;;;;;;1.25;1.25;;;;;19.42;63.37;100397.47;5043160;28;45604;-63
2021/07/05 06:12:29;;;;;;;;;3.00;2.75;;;;;19.43;63.46;100406.22;5055243;28;46321;-64
2021/07/05 06:14:54;;;;;;;;;2.00;2.00;;;;;19.40;63.20;100398.50;5048554;28;57806;-61
2021/07/05 06:17:19;;;;;;;;;18.50;16.00;;;;;19.42;63.24;100407.13;5059716;28;59719;-62
2021/07/05 06:19:45;;;;;;;;;7.25;6.25;;;;;19.49;63.48;100410.22;5059444;28;45594;-62
2021/07/05 06:22:29;;;;;;;;;6.00;3.50;;;;;19.56;63.51;100403.56;5043261;28;45420;-61
2021/07/05 06:24:55;;;;;;;;;5.00;4.00;;;;;19.61;63.22;100402.28;5042716;28;45269;-61
2021/07/05 06:27:23;;;;;;;;;1.00;1.00;;;;;19.65;63.09;100402.94;5042419;28;45730;-63
2021/07/05 06:29:49;;;;;;;;;8.25;7.50;;;;;19.68;63.07;100394.81;5021124;28;45511;-61
2021/07/05 06:32:14;;;;;;;;;4.50;4.50;;;;;19.72;62.45;100385.72;5019985;28;45463;-61
2021/07/05 06:34:40;;;;;;;;;2.00;2.00;;;;;19.73;62.34;100374.22;5050594;28;63780;-61
2021/07/05 06:37:06;;;;;;;;;2.00;2.00;;;;;19.81;62.13;100384.22;5058626;28;45360;-62
2021/07/05 06:39:31;;;;;;;;;2.00;2.00;;;;;19.87;61.94;100389.06;5022131;28;45478;-61
2021/07/05 06:41:57;;;;;;;;;1.25;1.25;;;;;19.93;61.95;100386.84;5057650;28;50911;-60
2021/07/05 06:44:22;;;;;;;;;2.75;2.50;;;;;20.00;61.36;100381.94;5058261;28;58627;-61
2021/07/05 06:46:48;;;;;;;;;4.00;3.50;;;;;20.02;61.18;100393.22;5058730;28;50017;-61
2021/07/05 06:49:40;;;;;;;;;1.75;1.75;;;;;19.97;61.49;100393.56;5038465;28;53109;-62
2021/07/05 06:52:06;;;;;;;;;3.00;3.00;;;;;19.99;61.74;100388.16;5039008;28;46981;-60
2021/07/05 06:54:31;;;;;;;;;2.75;2.75;;;;;20.03;61.49;100389.66;5039444;28;45428;-60
2021/07/05 06:56:57;;;;;;;;;4.75;2.75;;;;;20.08;61.03;100398.06;5060452;28;45355;-60
2021/07/05 06:59:22;;;;;;;;;0.75;0.75;;;;;19.99;60.67;100390.81;5047396;28;60072;-60
2021/07/05 07:01:47;;;;;;;;;5.50;2.50;;;;;19.94;61.01;100399.06;5055792;28;48192;-60
2021/07/05 07:04:13;;;;;;;;;3.75;3.25;;;;;19.94;61.02;100395.59;5054334;28;55356;-60
2021/07/05 07:06:38;;;;;;;;;4.00;3.00;;;;;19.99;61.19;100401.38;5058415;28;52942;-60
2021/07/05 07:09:04;;;;;;;;;18.00;16.25;;;;;20.04;60.89;100399.25;5047019;28;67781;-61
2021/07/05 07:11:29;;;;;;;;;4.75;3.00;;;;;20.08;61.29;100407.78;5039417;28;45380;-61
2021/07/05 07:13:55;;;;;;;;;5.50;3.00;;;;;20.05;60.99;100406.22;5026351;28;45262;-61
2021/07/05 07:16:22;;;;;;;;;6.00;4.25;;;;;20.00;61.06;100410.97;5038580;28;48518;-60
2021/07/05 07:21:23;;;;;;;;;6.25;5.75;;;;;20.19;61.10;100403.41;5038401;28;45998;-63
2021/07/05 07:23:48;;;;;;;;;6.00;4.25;;;;;20.29;61.09;100403.59;5037893;28;45570;-63
2021/07/05 07:26:14;;;;;;;;;2.75;2.00;;;;;20.35;60.71;100403.13;5038289;28;49921;-62
2021/07/05 07:28:39;;;;;;;;;2.25;2.25;;;;;20.41;60.52;100409.78;5035503;28;45708;-62
2021/07/05 07:31:04;;;;;;;;;2.50;2.50;;;;;20.44;60.96;100413.06;5046074;28;69906;-63
2021/07/05 07:33:30;;;;;;;;;6.50;5.25;;;;;20.49;60.76;100420.63;5051685;28;52926;-61
2021/07/05 07:35:58;;;;;;;;;5.00;4.75;;;;;20.51;60.30;100410.78;5049078;28;51999;-63
2021/07/05 07:38:24;;;;;;;;;1.50;1.50;;;;;20.55;60.24;100414.88;5050394;28;45472;-63
2021/07/05 07:40:49;;;;;;;;;3.00;3.00;;;;;20.55;60.24;100413.09;5049738;28;46386;-63
2021/07/05 07:43:14;;;;;;;;;5.25;3.75;;;;;20.54;60.23;100424.59;5049573;28;45259;-63
2021/07/05 07:45:40;;;;;;;;;3.00;3.00;;;;;20.60;60.23;100423.31;5048842;28;50368;-59
2021/07/05 07:48:05;;;;;;;;;4.00;3.75;;;;;20.59;60.22;100422.47;5037350;28;45479;-59
2021/07/05 07:50:31;;;;;;;;;6.75;4.00;;;;;20.63;60.05;100423.94;5050794;28;61905;-60
2021/07/05 07:52:57;;;;;;;;;3.75;3.00;;;;;20.76;60.00;100421.22;5059198;28;45299;-62
2021/07/05 07:55:22;;;;;;;;;8.00;6.50;;;;;20.90;59.93;100418.38;5059430;28;45462;-62
2021/07/05 07:57:48;;;;;;;;;4.00;4.00;;;;;21.08;59.87;100402.09;5059362;28;45326;-62
2021/07/05 08:00:15;;;;;;;;;5.50;5.00;;;;;21.23;59.57;100391.19;5059311;28;56297;-63
2021/07/05 08:02:40;;;;;;;;;6.00;3.00;;;;;21.38;59.28;100378.59;5058699;28;45269;-67
2021/07/05 08:05:06;;;;;;;;;5.00;5.00;;;;;21.58;58.72;100386.75;5038634;28;45448;-65
2021/07/05 08:07:32;;;;;;;;;3.00;3.00;;;;;21.69;59.00;100384.97;5058749;28;45597;-65
2021/07/05 08:09:57;;;;;;;;;4.00;3.75;;;;;21.77;58.19;100395.75;5053622;28;45970;-65
2021/07/05 08:12:23;;;;;;;;;4.50;4.50;;;;;21.96;58.22;100389.84;5054214;28;45220;-65
2021/07/05 08:14:48;;;;;;;;;8.00;6.50;;;;;22.13;57.58;100389.34;5059440;28;45299;-65
2021/07/05 08:17:14;;;;;;;;;6.00;5.25;;;;;22.23;57.30;100388.63;5058681;28;45479;-65
2021/07/05 08:19:39;;;;;;;;;7.00;6.50;;;;;22.29;57.39;100402.19;5053218;28;49813;-64
2021/07/05 08:22:04;;;;;;;;;5.75;5.00;;;;;22.28;56.78;100399.66;5052564;28;64119;-66
2021/07/05 08:24:30;;;;;;;;;8.50;7.75;;;;;22.32;57.23;100406.38;5059616;28;45317;-64
2021/07/05 08:26:55;;;;;;;;;6.00;5.25;;;;;22.44;57.08;100408.03;5059431;28;45576;-64
2021/07/05 08:29:21;;;;;;;;;10.00;4.00;;;;;22.41;56.52;100411.75;5059180;28;46575;-64
2021/07/05 08:31:46;;;;;;;;;5.50;5.50;;;;;22.29;55.92;100419.88;5058424;28;56409;-64
2021/07/05 08:34:11;;;;;;;;;4.75;4.75;;;;;22.04;56.36;100411.28;5037669;28;45810;-63
2021/07/05 08:36:40;;;;;;;;;7.75;5.00;;;;;21.97;57.07;100414.50;5036667;28;56947;-65
2021/07/05 08:39:05;;;;;;;;;8.00;7.00;;;;;22.11;57.15;100425.69;5055742;28;45418;-66
2021/07/05 08:41:31;;;;;;;;;6.25;6.25;;;;;22.29;56.58;100411.94;5021387;28;45274;-64
2021/07/05 08:43:56;;;;;;;;;7.25;7.00;;;;;22.43;56.42;100414.31;5021183;28;45944;-63
2021/07/05 08:46:22;;;;;;;;;4.50;4.50;;;;;22.54;55.87;100421.34;5016344;28;46772;-65
2021/07/05 08:48:47;;;;;;;;;5.00;5.00;;;;;22.63;56.21;100402.91;5037312;28;46171;-63
2021/07/05 08:51:19;;;;;;;;;8.00;6.00;;;;;22.70;55.46;100409.38;5055233;28;55140;-64
2021/07/05 08:53:46;;;;;;;;;6.25;5.75;;;;;22.68;55.10;100410.47;5037969;28;45328;-64
2021/07/05 08:56:11;;;;;;;;;8.75;7.50;;;;;22.63;55.82;100394.97;5044937;28;45285;-63
2021/07/05 08:58:38;;;;;;;;;7.25;4.75;;;;;22.86;55.91;100402.81;5051667;28;45966;-63
2021/07/05 09:01:05;;;;;;;;;8.00;6.75;;;;;23.05;55.56;100405.59;5053717;28;45475;-67
2021/07/05 09:03:31;;;;;;;;;6.25;5.75;;;;;23.09;54.35;100407.00;5015652;28;45407;-64
2021/07/05 09:06:16;;;;;;;;;7.00;5.75;;;;;22.90;54.57;100412.19;5054808;28;45345;-64
2021/07/05 09:08:43;;;;;;;;;5.75;5.25;;;;;22.71;55.00;100404.91;5037943;28;45455;-63
2021/07/05 09:11:09;;;;;;;;;8.50;7.00;;;;;22.62;54.72;100408.31;5057396;28;45611;-66
2021/07/05 09:13:53;;;;;;;;;8.00;7.00;;;;;22.55;55.27;100413.28;5058770;28;45320;-65
2021/07/05 09:16:33;;;;;;;;;7.00;6.00;;;;;22.65;55.58;100410.72;5040054;28;53199;-65
2021/07/05 09:18:58;;;;;;;;;11.25;8.00;;;;;22.66;54.83;100410.59;5058190;28;45702;-60
2021/07/05 09:21:26;;;;;;;;;8.50;6.25;;;;;22.63;55.21;100416.16;5051192;28;45150;-64
2021/07/05 09:24:02;;;;;;;;;8.00;7.25;;;;;22.65;55.29;100426.63;5039804;28;45346;-62
2021/07/05 09:26:35;;;;;;;;;9.75;8.50;;;;;22.55;55.04;100421.22;5061854;28;45542;-63
2021/07/05 09:29:05;;;;;;;;;8.50;7.75;;;;;22.53;55.43;100427.63;5060418;28;45406;-62
2021/07/05 09:31:36;;;;;;;;;11.00;9.00;;;;;22.45;55.28;100423.81;5061548;28;45222;-62
2021/07/05 09:34:03;;;;;;;;;8.00;6.00;;;;;22.30;55.65;100426.84;5043547;28;45448;-63
2021/07/05 09:36:28;;;;;;;;;7.75;6.50;;;;;22.19;55.99;100426.88;5061530;28;45410;-62
2021/07/05 09:38:54;;;;;;;;;7.75;5.25;;;;;22.02;56.53;100421.09;5057489;28;46146;-61
2021/07/05 09:41:30;;;;;;;;;4.00;4.00;;;;;22.00;56.73;100427.47;5045169;28;45371;-64
2021/07/05 09:44:00;;;;;;;;;4.00;3.00;;;;;22.03;56.79;100432.56;5062041;28;45313;-61
2021/07/05 09:46:40;;;;;;;;;4.00;4.00;;;;;22.09;56.96;100422.34;5060937;28;45698;-63
2021/07/05 09:49:10;;;;;;;;;6.50;4.75;;;;;22.31;56.75;100426.72;5060870;28;46275;-63
2021/07/05 09:51:36;;;;;;;;;3.00;3.00;;;;;22.54;56.18;100426.66;5060675;28;45476;-69
2021/07/05 09:54:01;;;;;;;;;3.00;3.00;;;;;22.87;55.97;100423.06;5060412;28;45288;-66
2021/07/05 09:56:28;;;;;;;;;3.50;3.00;;;;;23.13;55.28;100434.09;5039160;28;45385;-65
2021/07/05 09:58:55;;;;;;;;;3.00;3.00;;;;;23.30;54.56;100438.81;5034772;28;45384;-64
2021/07/05 10:01:38;;;;;;;;;6.00;3.25;;;;;23.19;53.57;100418.50;5041325;28;45516;-62
2021/07/05 10:04:07;;;;;;;;;3.00;3.00;;;;;23.26;54.01;100427.63;5057055;28;45678;-74
2021/07/05 10:06:45;;;;;;;;;2.75;2.75;;;;;23.29;54.31;100429.16;5060344;28;45304;-63
2021/07/05 10:09:11;;;;;;;;;5.00;4.00;;;;;23.41;54.18;100437.88;5059581;28;45389;-62
2021/07/05 10:11:37;;;;;;;;;3.75;3.00;;;;;23.36;52.78;100440.94;5058939;28;45484;-62
2021/07/05 10:14:14;;;;;;;;;2.00;2.00;;;;;23.18;53.12;100442.50;5042459;28;45332;-62
2021/07/05 10:16:41;;;;;;;;;3.00;3.00;;;;;22.91;53.45;100435.06;5040293;28;45464;-67
2021/07/05 10:19:07;;;;;;;;;3.00;2.00;;;;;22.74;54.13;100441.72;5041822;28;45502;-64
2021/07/05 10:21:34;;;;;;;;;2.00;2.00;;;;;22.71;54.53;100432.25;5053892;28;45224;-64
2021/07/05 10:24:00;;;;;;;;;1.75;1.75;;;;;22.81;54.13;100439.41;5057100;28;45403;-61
2021/07/05 10:26:25;;;;;;;;;2.00;1.00;;;;;23.01;53.19;100441.25;5058908;28;62671;-63
2021/07/05 10:28:50;;;;;;;;;1.00;1.00;;;;;23.18;53.19;100431.88;5038755;28;46071;-62
2021/07/05 10:31:16;;;;;;;;;4.50;2.75;;;;;23.33;53.83;100444.69;5030902;28;47759;-66
2021/07/05 10:33:42;;;;;;;;;2.00;2.00;;;;;23.57;53.40;100432.97;5040837;28;45450;-63
2021/07/05 10:36:10;;;;;;;;;2.00;1.50;;;;;23.83;52.31;100436.03;5058815;28;66714;-60
2021/07/05 10:38:53;;;;;;;;;2.00;2.00;;;;;23.95;52.00;100437.56;5059796;28;47098;-62
2021/07/05 10:41:20;;;;;;;;;2.00;1.75;;;;;24.07;51.75;100435.66;5053706;28;45656;-61
2021/07/05 10:43:54;;;;;;;;;2.00;2.00;;;;;24.17;50.49;100452.44;5060860;28;45378;-62
2021/07/05 10:46:38;;;;;;;;;2.00;2.00;;;;;24.05;50.21;100458.84;5039248;28;45474;-62
2021/07/05 10:49:04;;;;;;;;;2.25;2.00;;;;;23.93;50.78;100468.72;5038825;28;45512;-61
2021/07/05 10:51:42;;;;;;;;;1.00;1.00;;;;;23.96;51.07;100460.50;5058233;28;45343;-61
2021/07/05 10:54:08;;;;;;;;;1.50;1.00;;;;;24.23;51.00;100463.38;5060528;28;45336;-62
2021/07/05 10:56:43;;;;;;;;;1.75;1.75;;;;;24.53;50.86;100462.47;5060472;28;45224;-64
2021/07/05 10:59:12;;;;;;;;;2.25;2.25;;;;;24.77;49.38;100458.53;5060145;28;45463;-63
2021/07/05 11:01:38;;;;;;;;;2.00;2.00;;;;;24.89;49.31;100457.44;5060183;28;45519;-64
2021/07/05 11:04:20;;;;;;;;;1.00;1.00;;;;;24.93;48.93;100445.53;5038898;28;45345;-64
2021/07/05 11:06:46;;;;;;;;;2.25;1.75;;;;;24.81;48.92;100446.66;5047259;28;45376;-64
2021/07/05 11:09:22;;;;;;;;;2.00;2.00;;;;;24.78;48.77;100457.56;5059476;28;46025;-64
2021/07/05 11:11:52;;;;;;;;;4.50;3.25;;;;;24.89;47.60;100452.13;5058396;28;45414;-65
2021/07/05 11:14:28;;;;;;;;;2.00;2.00;;;;;24.95;48.32;100454.19;5059973;28;45298;-65
2021/07/05 11:17:17;;;;;;;;;3.00;3.00;;;;;24.90;46.58;100450.31;5059804;28;45605;-72
2021/07/05 11:19:47;;;;;;;;;2.00;2.00;;;;;24.85;47.85;100446.25;5038761;28;46655;-65
2021/07/05 11:22:30;;;;;;;;;3.00;3.00;;;;;24.94;46.97;100443.72;5055269;28;45285;-64
2021/07/05 11:25:17;;;;;;;;;4.50;1.75;;;;;25.00;46.76;100437.84;5041702;28;45364;-72